createdAt,value
2022-11-24T00:00:51.462Z,78.42
2022-11-24T00:03:18.481Z,78.12
2022-11-24T00:05:45.258Z,78.05
2022-11-24T00:08:12.363Z,78.40
2022-11-24T00:10:39.162Z,77.92
2022-11-24T00:13:05.861Z,77.95
2022-11-24T00:15:32.547Z,77.64
2022-11-24T00:17:59.198Z,78.08
2022-11-24T00:20:25.868Z,78.30
2022-11-24T00:22:52.533Z,78.47
2022-11-24T00:25:19.174Z,78.23
2022-11-24T00:27:48.825Z,77.85
2022-11-24T00:30:15.727Z,77.52
2022-11-24T00:32:42.451Z,77.83
2022-11-24T00:35:09.444Z,77.67
2022-11-24T00:37:36.277Z,77.09
2022-11-24T00:40:03.070Z,77.75
2022-11-24T00:42:29.730Z,78.16
2022-11-24T00:44:56.393Z,78.14
2022-11-24T00:47:23.107Z,77.90
2022-11-24T00:49:49.820Z,77.24
2022-11-24T00:52:16.739Z,77.34
2022-11-24T00:54:43.359Z,77.88
2022-11-24T00:57:10.117Z,78.75
2022-11-24T00:59:36.769Z,78.26
2022-11-24T01:02:03.580Z,78.63
2022-11-24T01:04:30.290Z,78.78
2022-11-24T01:06:56.965Z,79.20
2022-11-24T01:09:23.838Z,78.85
2022-11-24T01:12:02.758Z,78.46
2022-11-24T01:14:30.676Z,78.34
2022-11-24T01:16:57.378Z,78.27
2022-11-24T01:19:24.366Z,77.71
2022-11-24T01:21:51.090Z,77.74
2022-11-24T01:24:18.189Z,76.92
2022-11-24T01:26:44.915Z,77.79
2022-11-24T01:29:12.486Z,78.01
2022-11-24T01:31:39.297Z,77.51
2022-11-24T01:34:06.435Z,77.80
2022-11-24T01:36:33.833Z,78.48
2022-11-24T01:39:00.479Z,78.36
2022-11-24T01:41:27.430Z,78.51
2022-11-24T01:43:57.656Z,78.44
2022-11-24T01:46:32.043Z,78.16
2022-11-24T01:49:20.923Z,77.84
2022-11-24T01:51:51.152Z,77.71
2022-11-24T01:54:23.731Z,77.68
2022-11-24T01:56:53.724Z,77.08
2022-11-24T01:59:23.872Z,77.36
2022-11-24T02:01:51.690Z,78.53
2022-11-24T02:04:24.095Z,77.49
2022-11-24T02:06:52.041Z,77.22
2022-11-24T02:09:32.953Z,77.58
2022-11-24T02:12:01.154Z,77.59
2022-11-24T02:14:27.961Z,77.72
2022-11-24T02:16:54.699Z,78.60
2022-11-24T02:19:40.264Z,78.22
2022-11-24T02:22:22.316Z,78.35
2022-11-24T02:25:15.224Z,78.36
2022-11-24T02:27:44.701Z,78.10
2022-11-24T02:30:15.198Z,78.01
2022-11-24T02:32:42.319Z,77.94
2022-11-24T02:35:13.907Z,77.76
2022-11-24T02:37:40.623Z,77.53
2022-11-24T02:40:08.233Z,77.69
2022-11-24T02:42:40.093Z,77.49
2022-11-24T02:45:07.451Z,77.38
2022-11-24T02:47:34.165Z,77.61
2022-11-24T02:50:04.251Z,77.82
2022-11-24T02:52:30.915Z,77.28
2022-11-24T02:54:57.597Z,76.78
2022-11-24T02:57:27.331Z,78.08
2022-11-24T02:59:54.080Z,77.80
2022-11-24T03:02:20.976Z,76.85
2022-11-24T03:04:47.609Z,77.01
2022-11-24T03:07:14.814Z,77.45
2022-11-24T03:09:41.577Z,77.73
2022-11-24T03:12:08.388Z,77.48
2022-11-24T03:14:35.370Z,76.98
2022-11-24T03:17:02.533Z,78.20
2022-11-24T03:19:29.212Z,78.33
2022-11-24T03:21:55.990Z,78.08
2022-11-24T03:24:22.673Z,78.29
2022-11-24T03:26:49.321Z,78.25
2022-11-24T03:29:18.399Z,77.73
2022-11-24T03:31:45.428Z,77.33
2022-11-24T03:34:12.100Z,76.96
2022-11-24T03:36:38.855Z,77.36
2022-11-24T03:39:05.706Z,77.91
2022-11-24T03:41:32.593Z,77.25
2022-11-24T03:43:59.308Z,76.81
2022-11-24T03:46:26.124Z,77.26
2022-11-24T03:48:52.840Z,76.48
2022-11-24T03:51:19.566Z,77.21
2022-11-24T03:53:46.327Z,77.36
2022-11-24T03:56:14.349Z,77.40
2022-11-24T03:58:41.121Z,77.42
2022-11-24T04:01:07.764Z,76.89
2022-11-24T04:03:34.403Z,77.18
2022-11-24T04:06:01.078Z,77.51
2022-11-24T04:08:27.880Z,76.97
2022-11-24T04:10:54.920Z,76.35
2022-11-24T04:13:23.605Z,75.98
2022-11-24T04:15:50.600Z,76.25
2022-11-24T04:18:17.370Z,76.97
2022-11-24T04:20:44.440Z,77.06
2022-11-24T04:23:11.382Z,77.18
2022-11-24T04:25:38.636Z,76.66
2022-11-24T04:28:05.464Z,77.29
2022-11-24T04:30:32.146Z,76.87
2022-11-24T04:32:59.084Z,76.64
2022-11-24T04:35:25.706Z,76.83
2022-11-24T04:37:52.666Z,76.67
2022-11-24T04:40:20.116Z,77.02
2022-11-24T04:42:55.388Z,76.13
2022-11-24T04:45:23.057Z,76.69
2022-11-24T04:47:49.839Z,76.48
2022-11-24T04:50:16.839Z,76.98
2022-11-24T04:52:44.027Z,76.90
2022-11-24T04:55:11.128Z,77.04
2022-11-24T04:57:38.295Z,76.92
2022-11-24T05:00:05.562Z,76.61
2022-11-24T05:02:32.292Z,76.36
2022-11-24T05:04:58.979Z,76.81
2022-11-24T05:07:25.685Z,77.11
2022-11-24T05:10:11.014Z,76.77
2022-11-24T05:12:37.619Z,76.51
2022-11-24T05:15:05.789Z,76.70
2022-11-24T05:17:36.389Z,76.41
2022-11-24T05:20:04.528Z,76.59
2022-11-24T05:22:31.857Z,76.91
2022-11-24T05:24:58.544Z,75.95
2022-11-24T05:27:25.333Z,75.84
2022-11-24T05:29:52.006Z,75.91
2022-11-24T05:32:18.724Z,75.59
2022-11-24T05:34:45.513Z,76.01
2022-11-24T05:37:12.135Z,76.30
2022-11-24T05:39:38.828Z,76.57
2022-11-24T05:42:25.854Z,76.35
2022-11-24T05:44:53.491Z,75.83
2022-11-24T05:47:20.709Z,77.36
2022-11-24T05:49:47.695Z,77.10
2022-11-24T05:52:14.388Z,76.80
2022-11-24T05:54:41.078Z,76.59
2022-11-24T05:57:07.879Z,75.87
2022-11-24T05:59:34.574Z,76.70
2022-11-24T06:02:01.328Z,76.64
2022-11-24T06:04:28.195Z,76.29
2022-11-24T06:06:54.896Z,77.02
2022-11-24T06:09:21.647Z,77.01
2022-11-24T06:11:48.600Z,77.69
2022-11-24T06:14:15.265Z,77.44
2022-11-24T06:16:42.307Z,77.23
2022-11-24T06:19:10.396Z,76.92
2022-11-24T06:21:37.087Z,76.53
2022-11-24T06:24:04.271Z,76.60
2022-11-24T06:26:31.028Z,77.55
2022-11-24T06:29:01.412Z,76.98
2022-11-24T06:31:28.203Z,76.70
2022-11-24T06:33:54.943Z,76.35
2022-11-24T06:36:21.689Z,76.64
2022-11-24T06:38:48.350Z,76.59
2022-11-24T06:41:16.151Z,76.37
2022-11-24T06:43:46.436Z,76.28
2022-11-24T06:46:13.591Z,76.07
2022-11-24T06:48:40.273Z,76.57
2022-11-24T06:51:08.979Z,76.71
2022-11-24T06:53:38.290Z,76.65
2022-11-24T06:56:15.736Z,76.44
2022-11-24T06:58:48.387Z,76.31
2022-11-24T07:01:18.061Z,75.92
2022-11-24T07:03:44.960Z,76.27
2022-11-24T07:06:11.842Z,76.66
2022-11-24T07:08:38.596Z,76.59
2022-11-24T07:11:07.391Z,75.78
2022-11-24T07:13:34.103Z,76.11
2022-11-24T07:16:09.664Z,76.20
2022-11-24T07:18:36.358Z,76.22
2022-11-24T07:21:06.195Z,76.51
2022-11-24T07:23:32.849Z,76.19
2022-11-24T07:26:05.267Z,76.12
2022-11-24T07:28:33.831Z,76.67
2022-11-24T07:31:05.697Z,76.56
2022-11-24T07:33:32.554Z,76.71
2022-11-24T07:36:03.456Z,76.37
2022-11-24T07:38:31.732Z,76.84
2022-11-24T07:41:02.359Z,76.85
2022-11-24T07:43:30.539Z,76.55
2022-11-24T07:45:57.633Z,76.53
2022-11-24T07:48:24.546Z,76.34
2022-11-24T07:50:55.438Z,76.81
2022-11-24T07:53:22.511Z,76.53
2022-11-24T07:55:56.432Z,76.40
2022-11-24T07:58:23.316Z,76.41
2022-11-24T08:00:50.735Z,76.57
2022-11-24T08:03:17.550Z,76.73
2022-11-24T08:06:16.109Z,76.41
2022-11-24T08:08:33.481Z,76.40
2022-11-24T08:11:08.214Z,75.96
2022-11-24T08:13:35.963Z,77.06
2022-11-24T08:16:07.449Z,76.48
2022-11-24T08:18:35.277Z,76.26
2022-11-24T08:21:02.529Z,75.86
2022-11-24T08:23:29.915Z,76.28
2022-11-24T08:25:57.368Z,76.37
2022-11-24T08:28:24.480Z,76.04
2022-11-24T08:30:51.357Z,76.31
2022-11-24T08:33:19.082Z,75.70
2022-11-24T08:35:45.863Z,75.56
2022-11-24T08:38:12.560Z,75.84
2022-11-24T08:40:39.299Z,75.56
2022-11-24T08:43:06.292Z,76.12
2022-11-24T08:45:38.151Z,76.22
2022-11-24T08:48:08.005Z,76.90
2022-11-24T08:50:35.733Z,78.15
2022-11-24T08:53:02.434Z,77.21
2022-11-24T08:55:29.191Z,76.82
2022-11-24T08:57:59.508Z,76.72
2022-11-24T09:00:26.512Z,76.76
2022-11-24T09:02:55.251Z,76.40
2022-11-24T09:05:50.161Z,76.45
2022-11-24T09:08:08.820Z,76.55
2022-11-24T09:10:36.269Z,76.47
2022-11-24T09:13:02.995Z,76.19
2022-11-24T09:15:29.783Z,76.04
2022-11-24T09:17:57.557Z,76.16
2022-11-24T09:20:24.398Z,76.21
2022-11-24T09:22:51.056Z,76.29
2022-11-24T09:25:21.051Z,77.18
2022-11-24T09:27:47.674Z,76.79
2022-11-24T09:30:14.634Z,76.40
2022-11-24T09:32:42.597Z,75.65
2022-11-24T09:35:09.691Z,76.31
2022-11-24T09:37:36.489Z,77.53
2022-11-24T09:40:03.569Z,77.96
2022-11-24T09:42:36.147Z,77.11
2022-11-24T09:45:06.650Z,76.64
2022-11-24T09:47:51.882Z,77.18
2022-11-24T09:50:23.489Z,76.64
2022-11-24T09:53:11.033Z,76.62
2022-11-24T09:55:59.702Z,76.80
2022-11-24T09:58:51.961Z,76.78
2022-11-24T10:01:26.604Z,76.94
2022-11-24T10:03:53.831Z,76.86
2022-11-24T10:06:28.243Z,77.10
2022-11-24T10:09:07.956Z,77.07
2022-11-24T10:12:04.010Z,77.46
2022-11-24T10:14:42.945Z,75.91
2022-11-24T10:17:18.610Z,75.22
2022-11-24T10:19:56.917Z,76.52
2022-11-24T10:22:39.923Z,76.20
2022-11-24T10:25:12.768Z,75.65
2022-11-24T10:27:49.223Z,75.60
2022-11-24T10:30:45.928Z,76.19
2022-11-24T10:33:27.105Z,75.54
2022-11-24T10:36:14.501Z,75.46
2022-11-24T10:39:03.302Z,75.32
2022-11-24T10:41:42.727Z,74.70
2022-11-24T10:44:14.310Z,74.60
2022-11-24T10:46:41.340Z,74.70
2022-11-24T10:49:16.513Z,74.76
2022-11-24T10:52:14.203Z,75.32
2022-11-24T10:54:58.544Z,74.57
2022-11-24T10:57:35.110Z,74.99
2022-11-24T11:00:24.353Z,75.25
2022-11-24T11:03:11.155Z,75.01
2022-11-24T11:05:43.342Z,75.36
2022-11-24T11:08:26.617Z,75.14
2022-11-24T11:11:15.163Z,74.98
2022-11-24T11:14:03.514Z,75.54
2022-11-24T11:16:46.017Z,75.21
2022-11-24T11:19:48.348Z,75.27
2022-11-24T11:22:24.308Z,74.95
2022-11-24T11:25:09.985Z,74.97
2022-11-24T11:27:37.961Z,75.41
2022-11-24T11:35:51.120Z,75.15
2022-11-24T11:38:18.138Z,74.84
2022-11-24T11:40:49.157Z,75.52
2022-11-24T11:43:25.175Z,75.01
2022-11-24T11:46:00.672Z,75.29
2022-11-24T11:48:43.257Z,75.66
2022-11-24T11:51:25.926Z,75.64
2022-11-24T11:54:30.154Z,75.68
2022-11-24T11:57:20.606Z,77.32
2022-11-24T12:00:04.673Z,77.07
2022-11-24T12:02:53.330Z,76.61
2022-11-24T12:05:25.538Z,76.57
2022-11-24T12:09:03.320Z,76.31
2022-11-24T12:11:34.375Z,76.18
2022-11-24T12:14:19.250Z,76.59
2022-11-24T12:17:02.024Z,76.04
2022-11-24T12:20:12.732Z,74.97
2022-11-24T12:22:44.289Z,75.76
2022-11-24T12:25:20.039Z,76.46
2022-11-24T12:28:02.320Z,75.67
2022-11-24T12:30:55.060Z,75.80
2022-11-24T12:34:00.940Z,75.53
2022-11-24T12:36:33.095Z,75.75
2022-11-24T12:39:21.292Z,75.98
2022-11-24T12:42:23.279Z,75.80
2022-11-24T12:45:06.247Z,76.16
2022-11-24T12:47:51.086Z,75.76
2022-11-24T12:50:19.641Z,76.75
2022-11-24T12:53:19.067Z,76.65
2022-11-24T12:55:46.405Z,77.13
2022-11-24T12:58:42.889Z,77.20
2022-11-24T13:01:23.781Z,76.82
2022-11-24T13:04:12.318Z,76.47
2022-11-24T13:06:49.643Z,76.93
2022-11-24T13:09:16.603Z,78.83
2022-11-24T13:11:46.858Z,79.13
2022-11-24T13:14:29.764Z,77.78
2022-11-24T13:17:46.265Z,77.81
2022-11-24T13:20:20.190Z,77.25
2022-11-24T13:22:56.625Z,78.16
2022-11-24T13:25:31.447Z,77.88
2022-11-24T13:28:00.209Z,78.31
2022-11-24T13:30:35.947Z,76.77
2022-11-24T13:33:16.229Z,77.22
2022-11-24T13:36:09.763Z,76.77
2022-11-24T13:38:39.754Z,77.07
2022-11-24T13:41:28.331Z,77.07
2022-11-24T13:44:15.996Z,76.94
2022-11-24T13:47:06.164Z,76.88
2022-11-24T13:49:44.361Z,76.02
2022-11-24T13:52:36.291Z,76.02
2022-11-24T13:55:13.090Z,76.66
2022-11-24T13:57:52.004Z,77.32
2022-11-24T14:00:24.915Z,77.47
2022-11-24T14:02:54.316Z,77.10
2022-11-24T14:05:24.073Z,77.50
2022-11-24T14:07:51.932Z,77.88
2022-11-24T14:10:23.001Z,78.40
2022-11-24T14:13:16.568Z,78.48
2022-11-24T14:15:43.254Z,77.81
2022-11-24T14:18:18.565Z,77.88
2022-11-24T14:20:45.286Z,77.19
2022-11-24T14:23:12.072Z,77.92
2022-11-24T14:25:39.222Z,77.20
2022-11-24T14:28:23.603Z,77.28
2022-11-24T14:30:50.576Z,77.67
2022-11-24T14:33:20.047Z,76.52
2022-11-24T14:35:49.496Z,76.96
2022-11-24T14:38:16.188Z,77.40
2022-11-24T14:40:44.027Z,77.59
2022-11-24T14:43:26.361Z,77.04
2022-11-24T14:45:58.647Z,77.11
2022-11-24T14:48:31.159Z,77.54
2022-11-24T14:51:21.954Z,77.27
2022-11-24T14:53:51.284Z,77.83
2022-11-24T14:56:27.349Z,77.47
2022-11-24T14:58:55.433Z,77.56
2022-11-24T15:01:28.112Z,77.25
2022-11-24T15:04:13.089Z,76.87
2022-11-24T15:06:47.400Z,76.96
2022-11-24T15:09:50.879Z,76.41
2022-11-24T15:12:35.184Z,76.37
2022-11-24T15:15:05.978Z,76.63
2022-11-24T15:17:33.427Z,76.25
2022-11-24T15:20:04.221Z,76.52
2022-11-24T15:22:38.965Z,76.89
2022-11-24T15:25:25.438Z,78.41
2022-11-24T15:27:55.441Z,78.48
2022-11-24T15:30:22.592Z,78.55
2022-11-24T15:32:51.341Z,77.84
2022-11-24T15:35:18.057Z,77.87
2022-11-24T15:37:44.972Z,77.77
2022-11-24T15:40:11.958Z,77.49
2022-11-24T15:42:38.760Z,78.28
2022-11-24T15:45:10.103Z,78.69
2022-11-24T15:47:36.780Z,78.66
2022-11-24T15:50:03.948Z,78.09
2022-11-24T15:52:30.748Z,78.15
2022-11-24T15:54:58.428Z,77.68
2022-11-24T15:57:25.344Z,78.00
2022-11-24T15:59:52.812Z,77.80
2022-11-24T16:02:21.995Z,77.74
2022-11-24T16:04:49.593Z,77.69
2022-11-24T16:07:16.350Z,77.52
2022-11-24T16:09:43.417Z,77.85
2022-11-24T16:12:10.174Z,76.81
2022-11-24T16:14:40.007Z,77.13
2022-11-24T16:17:06.787Z,78.23
2022-11-24T16:19:38.693Z,78.88
2022-11-24T16:22:08.266Z,78.02
2022-11-24T16:24:37.720Z,77.99
2022-11-24T16:27:04.684Z,77.07
2022-11-24T16:29:36.901Z,78.45
2022-11-24T16:32:05.571Z,78.84
2022-11-24T16:34:32.547Z,77.24
2022-11-24T16:36:59.559Z,77.44
2022-11-24T16:39:26.264Z,78.04
2022-11-24T16:41:52.969Z,78.07
2022-11-24T16:44:19.641Z,78.07
2022-11-24T16:46:46.295Z,77.59
2022-11-24T16:49:13.210Z,79.29
2022-11-24T16:51:39.874Z,79.89
2022-11-24T16:54:06.706Z,79.49
2022-11-24T16:56:33.488Z,78.30
2022-11-24T16:59:00.270Z,78.35
2022-11-24T17:01:27.264Z,79.10
2022-11-24T17:03:53.992Z,78.54
2022-11-24T17:06:20.778Z,79.10
2022-11-24T17:08:47.634Z,78.85
2022-11-24T17:11:23.102Z,78.80
2022-11-24T17:13:50.059Z,78.76
2022-11-24T17:16:22.186Z,78.37
2022-11-24T17:18:49.455Z,78.39
2022-11-24T17:21:21.522Z,78.71
2022-11-24T17:23:48.444Z,78.45
2022-11-24T17:26:16.866Z,78.32
2022-11-24T17:28:44.219Z,77.55
2022-11-24T17:31:22.356Z,78.11
2022-11-24T17:33:50.157Z,79.04
2022-11-24T17:36:16.974Z,78.53
2022-11-24T17:38:43.719Z,78.10
2022-11-24T17:41:13.532Z,78.27
2022-11-24T17:43:40.293Z,78.17
2022-11-24T17:46:07.197Z,78.11
2022-11-24T17:48:40.290Z,78.05
2022-11-24T17:51:09.954Z,77.45
2022-11-24T17:53:37.612Z,77.49
2022-11-24T17:56:04.880Z,77.46
2022-11-24T17:58:32.717Z,77.95
2022-11-24T18:00:59.734Z,79.40
2022-11-24T18:03:31.744Z,79.25
2022-11-24T18:06:05.850Z,78.42
2022-11-24T18:08:33.674Z,77.70
2022-11-24T18:11:08.431Z,77.63
2022-11-24T18:13:55.895Z,78.11
2022-11-24T18:16:22.200Z,77.33
2022-11-24T18:18:51.009Z,76.92
2022-11-24T18:21:18.047Z,76.85
2022-11-24T18:23:45.053Z,76.30
2022-11-24T18:26:15.039Z,76.32
2022-11-24T18:28:43.594Z,76.30
2022-11-24T18:31:12.742Z,76.55
2022-11-24T18:33:40.710Z,75.91
2022-11-24T18:36:08.423Z,75.75
2022-11-24T18:38:39.061Z,75.67
2022-11-24T18:41:06.681Z,75.22
2022-11-24T18:43:35.895Z,75.00
2022-11-24T18:46:07.382Z,74.05
2022-11-24T18:48:34.938Z,73.74
2022-11-24T18:51:01.857Z,73.99
2022-11-24T18:53:29.684Z,74.58
2022-11-24T18:56:01.431Z,74.84
2022-11-24T18:58:30.209Z,73.97
2022-11-24T19:01:20.564Z,74.11
2022-11-24T19:03:53.481Z,73.95
2022-11-24T19:06:22.405Z,72.90
2022-11-24T19:08:52.023Z,72.93
2022-11-24T19:11:20.764Z,73.07
2022-11-24T19:13:48.904Z,73.16
2022-11-24T19:16:16.759Z,73.54
2022-11-24T19:18:45.552Z,73.25
2022-11-24T19:21:15.925Z,72.93
2022-11-24T19:23:42.800Z,73.09
2022-11-24T19:26:09.559Z,73.71
2022-11-24T19:28:36.270Z,73.30
2022-11-24T19:31:08.477Z,72.83
2022-11-24T19:33:35.244Z,73.22
2022-11-24T19:36:07.118Z,72.85
2022-11-24T19:38:35.336Z,74.26
2022-11-24T19:41:06.184Z,74.86
2022-11-24T19:43:33.417Z,74.12
2022-11-24T19:46:08.072Z,74.16
2022-11-24T19:48:46.123Z,74.50
2022-11-24T19:51:17.454Z,74.20
2022-11-24T19:53:44.702Z,74.90
2022-11-24T19:56:14.288Z,75.13
2022-11-24T19:58:41.333Z,74.79
2022-11-24T20:01:16.552Z,74.71
2022-11-24T20:03:44.892Z,74.71
2022-11-24T20:06:13.188Z,75.46
2022-11-24T20:08:41.866Z,75.82
2022-11-24T20:11:11.190Z,75.84
2022-11-24T20:13:39.241Z,75.45
2022-11-24T20:16:17.661Z,76.41
2022-11-24T20:18:46.279Z,77.42
2022-11-24T20:21:15.642Z,78.57
2022-11-24T20:23:42.714Z,79.26
2022-11-24T20:26:15.605Z,78.54
2022-11-24T20:28:42.962Z,78.50
2022-11-24T20:31:21.454Z,78.39
2022-11-24T20:33:48.299Z,78.83
2022-11-24T20:36:23.625Z,79.51
2022-11-24T20:38:51.223Z,79.30
2022-11-24T20:41:20.706Z,78.76
2022-11-24T20:43:47.733Z,78.55
2022-11-24T20:46:17.563Z,80.30
2022-11-24T20:48:44.939Z,79.83
2022-11-24T20:51:14.002Z,79.08
2022-11-24T20:53:41.024Z,78.47
2022-11-24T20:56:16.428Z,78.28
2022-11-24T20:58:43.508Z,78.11
2022-11-24T21:01:22.328Z,77.85
2022-11-24T21:03:56.679Z,77.79
2022-11-24T21:06:23.722Z,78.12
2022-11-24T21:08:51.091Z,78.21
2022-11-24T21:11:18.680Z,78.29
2022-11-24T21:13:46.032Z,78.29
2022-11-24T21:16:14.616Z,78.27
2022-11-24T21:18:41.443Z,78.41
2022-11-24T21:21:09.553Z,78.39
2022-11-24T21:23:36.351Z,78.32
2022-11-24T21:26:09.070Z,80.07
2022-11-24T21:28:38.629Z,79.55
2022-11-24T21:31:14.359Z,79.59
2022-11-24T21:33:42.245Z,79.21
2022-11-24T21:36:09.264Z,80.28
2022-11-24T21:38:36.204Z,80.54
2022-11-24T21:41:08.338Z,79.68
2022-11-24T21:43:35.669Z,79.01
2022-11-24T21:46:06.903Z,78.53
2022-11-24T21:48:35.565Z,78.82
2022-11-24T21:51:04.415Z,79.18
2022-11-24T21:53:33.953Z,79.59
2022-11-24T21:56:02.719Z,79.15
2022-11-24T21:58:29.940Z,79.41
2022-11-24T22:01:05.294Z,78.56
2022-11-24T22:03:32.265Z,79.07
2022-11-24T22:06:00.387Z,79.37
2022-11-24T22:08:28.245Z,80.89
2022-11-24T22:11:12.749Z,79.79
2022-11-24T22:13:40.674Z,79.21
2022-11-24T22:16:12.977Z,79.68
2022-11-24T22:18:44.249Z,78.93
2022-11-24T22:21:13.522Z,78.51
2022-11-24T22:23:40.529Z,78.75
2022-11-24T22:26:12.398Z,79.07
2022-11-24T22:28:39.626Z,78.86
2022-11-24T22:31:15.186Z,78.72
2022-11-24T22:33:42.315Z,78.44
2022-11-24T22:36:10.456Z,79.17
2022-11-24T22:38:40.745Z,79.00
2022-11-24T22:41:15.077Z,79.31
2022-11-24T22:43:43.084Z,78.98
2022-11-24T22:46:15.100Z,78.37
2022-11-24T22:48:42.539Z,78.53
2022-11-24T22:51:10.835Z,78.06
2022-11-24T22:53:38.014Z,78.66
2022-11-24T22:56:06.469Z,78.22
2022-11-24T22:58:37.078Z,77.65
2022-11-24T23:01:15.058Z,77.94
2022-11-24T23:03:42.143Z,78.40
2022-11-24T23:06:15.028Z,78.14
2022-11-24T23:08:42.366Z,78.19
2022-11-24T23:11:10.270Z,78.23
2022-11-24T23:13:40.532Z,78.89
2022-11-24T23:16:15.570Z,80.08
2022-11-24T23:18:42.939Z,79.25
2022-11-24T23:21:20.370Z,79.11
2022-11-24T23:23:48.363Z,79.08
2022-11-24T23:26:18.050Z,79.23
2022-11-24T23:28:44.733Z,78.52
2022-11-24T23:31:17.090Z,78.43
2022-11-24T23:33:43.791Z,78.69
2022-11-24T23:36:18.283Z,77.94
2022-11-24T23:38:45.329Z,78.73
2022-11-24T23:41:14.234Z,78.55
2022-11-24T23:43:42.355Z,79.50
2022-11-24T23:46:11.608Z,79.93
2022-11-24T23:48:38.913Z,80.25
2022-11-24T23:51:11.848Z,79.28
2022-11-24T23:53:38.593Z,78.73
2022-11-24T23:56:06.079Z,78.91
2022-11-24T23:58:33.537Z,78.81
